createdAt,value
2023-05-29T00:01:34.190Z,95590.50
2023-05-29T00:04:01.026Z,95588.94
2023-05-29T00:06:27.937Z,95580.75
2023-05-29T00:08:54.676Z,95583.06
2023-05-29T00:11:21.582Z,95581.22
2023-05-29T00:13:48.327Z,95590.25
2023-05-29T00:16:15.012Z,95582.44
2023-05-29T00:18:46.718Z,95585.59
2023-05-29T00:21:15.153Z,95584.03
2023-05-29T00:23:42.209Z,95583.50
2023-05-29T00:26:09.072Z,95585.63
2023-05-29T00:28:37.347Z,95579.47
2023-05-29T00:31:04.133Z,95573.06
2023-05-29T00:33:33.297Z,95571.25
2023-05-29T00:36:00.148Z,95577.13
2023-05-29T00:38:26.850Z,95566.28
2023-05-29T00:40:53.678Z,95571.13
2023-05-29T00:43:20.406Z,95587.38
2023-05-29T00:45:47.294Z,95577.50
2023-05-29T00:48:14.169Z,95569.91
2023-05-29T00:50:41.900Z,95577.06
2023-05-29T00:53:09.346Z,95575.06
2023-05-29T00:55:36.983Z,95565.03
2023-05-29T00:58:03.855Z,95572.66
2023-05-29T01:00:31.909Z,95570.06
2023-05-29T01:02:59.703Z,95572.22
2023-05-29T01:05:26.603Z,95570.53
2023-05-29T01:07:53.278Z,95578.28
2023-05-29T01:10:20.176Z,95579.41
2023-05-29T01:13:12.751Z,95586.06
2023-05-29T01:15:59.662Z,95583.16
2023-05-29T01:18:41.206Z,95574.16
2023-05-29T01:21:15.572Z,95584.59
2023-05-29T01:23:54.109Z,95579.59
2023-05-29T01:26:41.387Z,95582.50
2023-05-29T01:29:08.919Z,95583.53
2023-05-29T01:31:38.148Z,95576.66
2023-05-29T01:34:04.788Z,95585.22
2023-05-29T01:36:33.924Z,95589.47
2023-05-29T01:39:01.753Z,95584.13
2023-05-29T01:41:30.415Z,95592.09
2023-05-29T01:43:59.440Z,95587.84
2023-05-29T01:46:27.037Z,95581.75
2023-05-29T01:48:55.379Z,95581.50
2023-05-29T01:51:22.518Z,95579.38
2023-05-29T01:53:49.374Z,95574.06
2023-05-29T01:56:16.489Z,95580.72
2023-05-29T01:58:44.528Z,95575.38
2023-05-29T02:01:11.856Z,95581.78
2023-05-29T02:03:38.565Z,95576.44
2023-05-29T02:06:05.378Z,95576.19
2023-05-29T02:08:32.052Z,95579.88
2023-05-29T02:10:58.776Z,95576.22
2023-05-29T02:13:25.562Z,95576.22
2023-05-29T02:15:52.203Z,95585.22
2023-05-29T02:18:18.902Z,95579.91
2023-05-29T02:20:46.151Z,95576.97
2023-05-29T02:23:13.195Z,95565.31
2023-05-29T02:25:40.216Z,95572.22
2023-05-29T02:28:07.027Z,95568.50
2023-05-29T02:30:34.400Z,95573.03
2023-05-29T02:33:02.387Z,95578.31
2023-05-29T02:35:29.323Z,95565.06
2023-05-29T02:37:56.100Z,95570.34
2023-05-29T02:40:22.949Z,95560.25
2023-05-29T02:42:49.640Z,95574.84
2023-05-29T02:45:16.320Z,95568.75
2023-05-29T02:47:43.026Z,95560.28
2023-05-29T02:50:10.293Z,95574.88
2023-05-29T02:52:41.024Z,95567.72
2023-05-29T02:55:08.035Z,95575.41
2023-05-29T02:57:34.677Z,95576.47
2023-05-29T03:00:02.018Z,95571.69
2023-05-29T03:02:28.918Z,95569.28
2023-05-29T03:04:55.782Z,95562.88
2023-05-29T03:07:22.748Z,95574.03
2023-05-29T03:09:49.371Z,95567.41
2023-05-29T03:12:16.188Z,95573.22
2023-05-29T03:14:42.862Z,95568.19
2023-05-29T03:17:09.487Z,95563.66
2023-05-29T03:19:36.137Z,95569.78
2023-05-29T03:22:02.760Z,95563.94
2023-05-29T03:24:29.520Z,95560.75
2023-05-29T03:26:57.374Z,95569.75
2023-05-29T03:29:24.118Z,95575.09
2023-05-29T03:31:51.038Z,95577.50
2023-05-29T03:34:17.945Z,95571.66
2023-05-29T03:36:44.885Z,95578.06
2023-05-29T03:39:11.520Z,95568.97
2023-05-29T03:41:38.223Z,95580.66
2023-05-29T03:44:05.142Z,95583.59
2023-05-29T03:46:33.094Z,95580.75
2023-05-29T03:48:59.884Z,95593.88
2023-05-29T03:51:26.661Z,95592.84
2023-05-29T03:53:53.300Z,95587.78
2023-05-29T03:56:20.101Z,95589.91
2023-05-29T03:58:46.829Z,95591.22
2023-05-29T04:01:13.541Z,95592.56
2023-05-29T04:03:40.600Z,95591.81
2023-05-29T04:06:07.970Z,95593.09
2023-05-29T04:08:34.652Z,95592.56
2023-05-29T04:11:02.561Z,95601.13
2023-05-29T04:13:29.318Z,95600.63
2023-05-29T04:15:56.344Z,95597.97
2023-05-29T04:18:23.331Z,95603.25
2023-05-29T04:20:50.169Z,95611.75
2023-05-29T04:23:16.995Z,95617.84
2023-05-29T04:25:45.168Z,95619.13
2023-05-29T04:28:11.934Z,95613.59
2023-05-29T04:30:40.363Z,95622.38
2023-05-29T04:33:07.174Z,95619.47
2023-05-29T04:35:33.914Z,95623.72
2023-05-29T04:38:00.608Z,95624.50
2023-05-29T04:40:27.797Z,95629.03
2023-05-29T04:42:54.522Z,95626.91
2023-05-29T04:45:22.287Z,95631.69
2023-05-29T04:47:49.330Z,95633.81
2023-05-29T04:50:17.812Z,95639.91
2023-05-29T04:52:45.351Z,95641.78
2023-05-29T04:55:12.999Z,95637.84
2023-05-29T04:57:39.757Z,95636.50
2023-05-29T05:00:08.368Z,95634.38
2023-05-29T05:02:35.299Z,95632.00
2023-05-29T05:05:02.049Z,95643.94
2023-05-29T05:07:28.658Z,95632.75
2023-05-29T05:09:55.275Z,95644.19
2023-05-29T05:12:22.032Z,95645.97
2023-05-29T05:14:48.845Z,95649.91
2023-05-29T05:17:15.605Z,95639.50
2023-05-29T05:19:42.259Z,95651.13
2023-05-29T05:22:08.899Z,95648.16
2023-05-29T05:24:36.265Z,95641.22
2023-05-29T05:27:02.934Z,95658.94
2023-05-29T05:29:29.597Z,95652.44
2023-05-29T05:31:56.298Z,95668.84
2023-05-29T05:34:23.294Z,95673.09
2023-05-29T05:36:50.723Z,95657.56
2023-05-29T05:39:17.435Z,95661.13
2023-05-29T05:41:44.254Z,95655.16
2023-05-29T05:44:11.067Z,95658.59
2023-05-29T05:46:37.894Z,95661.75
2023-05-29T05:49:04.795Z,95662.38
2023-05-29T05:51:32.176Z,95664.34
2023-05-29T05:53:58.954Z,95662.44
2023-05-29T05:56:27.361Z,95660.63
2023-05-29T05:58:54.095Z,95666.03
2023-05-29T06:01:21.419Z,95663.03
2023-05-29T06:03:48.200Z,95664.22
2023-05-29T06:06:15.349Z,95670.19
2023-05-29T06:08:42.922Z,95670.75
2023-05-29T06:11:10.060Z,95682.38
2023-05-29T06:13:36.814Z,95680.09
2023-05-29T06:16:03.728Z,95679.25
2023-05-29T06:18:30.432Z,95680.16
2023-05-29T06:20:58.021Z,95681.91
2023-05-29T06:23:25.170Z,95678.28
2023-05-29T06:25:52.405Z,95680.53
2023-05-29T06:28:19.046Z,95683.41
2023-05-29T06:30:46.640Z,95677.41
2023-05-29T06:33:13.796Z,95679.31
2023-05-29T06:35:41.013Z,95677.59
2023-05-29T06:38:07.735Z,95679.19
2023-05-29T06:40:34.393Z,95677.94
2023-05-29T06:43:01.837Z,95679.91
2023-05-29T06:45:28.536Z,95693.31
2023-05-29T06:47:56.584Z,95689.34
2023-05-29T06:50:23.946Z,95691.22
2023-05-29T06:52:50.689Z,95690.53
2023-05-29T06:55:17.972Z,95694.31
2023-05-29T06:57:44.619Z,95691.72
2023-05-29T07:00:12.374Z,95699.84
2023-05-29T07:02:39.386Z,95698.09
2023-05-29T07:05:06.390Z,95702.22
2023-05-29T07:07:33.165Z,95700.19
2023-05-29T07:09:59.858Z,95705.47
2023-05-29T07:12:26.487Z,95695.00
2023-05-29T07:14:53.114Z,95699.94
2023-05-29T07:17:20.150Z,95697.38
2023-05-29T07:19:47.933Z,95695.44
2023-05-29T07:22:14.611Z,95704.50
2023-05-29T07:24:41.998Z,95715.97
2023-05-29T07:27:08.665Z,95701.47
2023-05-29T07:29:35.475Z,95721.31
2023-05-29T07:32:02.147Z,95717.16
2023-05-29T07:34:28.864Z,95720.44
2023-05-29T07:37:06.196Z,95717.88
2023-05-29T07:39:34.329Z,95708.16
2023-05-29T07:42:04.192Z,95714.00
2023-05-29T07:44:31.284Z,95713.84
2023-05-29T07:46:58.013Z,95712.13
2023-05-29T07:49:24.740Z,95709.34
2023-05-29T07:51:51.735Z,95711.09
2023-05-29T07:54:19.591Z,95711.75
2023-05-29T07:56:46.981Z,95707.25
2023-05-29T07:59:13.926Z,95714.41
2023-05-29T08:01:42.745Z,95707.81
2023-05-29T08:04:09.523Z,95720.19
2023-05-29T08:06:36.250Z,95700.88
2023-05-29T08:09:03.469Z,95710.19
2023-05-29T08:11:30.511Z,95706.47
2023-05-29T08:13:57.189Z,95707.09
2023-05-29T08:16:24.321Z,95716.47
2023-05-29T08:18:51.166Z,95714.75
2023-05-29T08:21:17.850Z,95711.22
2023-05-29T08:23:44.503Z,95706.00
2023-05-29T08:26:11.349Z,95710.59
2023-05-29T08:28:39.623Z,95705.41
2023-05-29T08:31:07.718Z,95705.88
2023-05-29T08:33:34.484Z,95707.94
2023-05-29T08:36:01.360Z,95703.16
2023-05-29T08:38:28.078Z,95712.63
2023-05-29T08:40:57.659Z,95718.56
2023-05-29T08:43:25.228Z,95713.59
2023-05-29T08:45:56.078Z,95703.78
2023-05-29T08:48:26.597Z,95711.22
2023-05-29T08:50:56.333Z,95719.44
2023-05-29T08:53:24.968Z,95721.91
2023-05-29T08:55:53.896Z,95718.31
2023-05-29T08:58:25.056Z,95707.63
2023-05-29T09:03:40.081Z,95705.56
2023-05-29T09:06:08.414Z,95706.00
2023-05-29T09:08:36.252Z,95715.63
2023-05-29T09:11:02.948Z,95705.28
2023-05-29T09:13:29.749Z,95709.78
2023-05-29T09:16:00.889Z,95708.91
2023-05-29T09:18:32.457Z,95714.28
2023-05-29T09:21:02.760Z,95718.41
2023-05-29T09:23:30.216Z,95708.34
2023-05-29T09:25:57.067Z,95715.69
2023-05-29T09:28:25.085Z,95720.47
2023-05-29T09:30:51.883Z,95707.50
2023-05-29T09:33:18.893Z,95706.66
2023-05-29T09:35:48.177Z,95720.63
2023-05-29T09:40:49.205Z,95718.06
2023-05-29T09:43:21.314Z,95705.78
2023-05-29T09:45:51.667Z,95710.16
2023-05-29T09:48:28.292Z,95710.75
2023-05-29T09:50:56.678Z,95716.91
2023-05-29T09:53:27.132Z,95714.00
2023-05-29T09:55:59.209Z,95712.44
2023-05-29T09:58:26.752Z,95715.75
2023-05-29T10:00:54.668Z,95719.72
2023-05-29T10:03:23.149Z,95721.88
2023-05-29T10:06:05.573Z,95716.63
2023-05-29T10:08:37.611Z,95718.28
2023-05-29T10:11:05.531Z,95706.63
2023-05-29T10:13:42.577Z,95719.34
2023-05-29T10:16:11.840Z,95712.50
2023-05-29T10:18:41.113Z,95715.84
2023-05-29T10:23:39.274Z,95691.69
2023-05-29T10:26:16.775Z,95702.84
2023-05-29T10:28:51.253Z,95699.47
2023-05-29T10:31:24.700Z,95699.91
2023-05-29T10:34:10.942Z,95694.94
2023-05-29T10:36:46.690Z,95687.97
2023-05-29T10:39:13.746Z,95687.63
2023-05-29T10:41:43.495Z,95691.66
2023-05-29T10:44:36.419Z,95687.94
2023-05-29T10:47:05.726Z,95693.50
2023-05-29T10:49:32.919Z,95685.25
2023-05-29T10:52:01.203Z,95685.84
2023-05-29T10:54:28.260Z,95687.59
2023-05-29T10:57:02.436Z,95686.25
2023-05-29T10:59:30.271Z,95676.91
2023-05-29T11:01:58.883Z,95676.44
2023-05-29T11:04:29.533Z,95684.97
2023-05-29T11:06:56.526Z,95690.78
2023-05-29T11:09:41.185Z,95682.50
2023-05-29T11:12:37.473Z,95680.66
2023-05-29T11:15:12.042Z,95680.47
2023-05-29T11:17:38.781Z,95685.56
2023-05-29T11:20:11.276Z,95684.19
2023-05-29T11:22:43.904Z,95690.81
2023-05-29T11:25:11.124Z,95688.66
2023-05-29T11:27:38.562Z,95674.97
2023-05-29T11:30:06.973Z,95685.25
2023-05-29T11:32:37.344Z,95682.19
2023-05-29T11:35:12.706Z,95664.34
2023-05-29T11:37:41.121Z,95675.84
2023-05-29T11:40:10.340Z,95682.75
2023-05-29T11:42:37.360Z,95677.88
2023-05-29T11:45:23.044Z,95685.25
2023-05-29T11:48:00.761Z,95680.28
2023-05-29T11:50:32.181Z,95675.75
2023-05-29T11:52:59.837Z,95682.63
2023-05-29T11:55:27.643Z,95674.06
2023-05-29T11:58:02.110Z,95684.13
2023-05-29T12:00:33.871Z,95680.56
2023-05-29T12:03:06.767Z,95679.72
2023-05-29T12:05:44.823Z,95680.41
2023-05-29T12:08:11.569Z,95675.31
2023-05-29T12:10:38.758Z,95669.03
2023-05-29T12:13:08.771Z,95673.22
2023-05-29T12:15:36.559Z,95677.47
2023-05-29T12:18:04.160Z,95652.84
2023-05-29T12:20:31.574Z,95677.13
2023-05-29T12:23:03.157Z,95679.78
2023-05-29T12:25:30.236Z,95672.34
2023-05-29T12:27:59.265Z,95674.50
2023-05-29T12:30:32.854Z,95671.84
2023-05-29T12:33:02.205Z,95666.63
2023-05-29T12:35:30.939Z,95665.97
2023-05-29T12:38:00.124Z,95655.63
2023-05-29T12:40:31.737Z,95663.31
2023-05-29T12:43:00.680Z,95662.47
2023-05-29T12:45:31.832Z,95665.16
2023-05-29T12:48:04.569Z,95661.84
2023-05-29T12:50:41.886Z,95674.59
2023-05-29T12:53:13.765Z,95664.31
2023-05-29T12:55:42.542Z,95667.59
2023-05-29T12:58:10.588Z,95671.19
2023-05-29T13:00:39.700Z,95663.91
2023-05-29T13:03:07.530Z,95667.78
2023-05-29T13:05:35.004Z,95664.00
2023-05-29T13:08:02.415Z,95664.47
2023-05-29T13:10:29.492Z,95670.06
2023-05-29T13:12:56.628Z,95670.16
2023-05-29T13:15:24.366Z,95668.94
2023-05-29T13:17:51.958Z,95669.22
2023-05-29T13:20:19.065Z,95662.53
2023-05-29T13:22:49.039Z,95664.09
2023-05-29T13:25:17.870Z,95667.00
2023-05-29T13:27:46.770Z,95657.97
2023-05-29T13:30:14.498Z,95664.28
2023-05-29T13:32:42.420Z,95658.19
2023-05-29T13:35:09.746Z,95666.22
2023-05-29T13:37:40.524Z,95649.50
2023-05-29T13:40:10.723Z,95660.59
2023-05-29T13:42:39.453Z,95657.03
2023-05-29T13:45:08.469Z,95641.69
2023-05-29T13:47:36.658Z,95653.16
2023-05-29T13:50:03.899Z,95643.72
2023-05-29T13:52:30.748Z,95648.63
2023-05-29T13:55:00.648Z,95637.41
2023-05-29T13:57:27.364Z,95636.63
2023-05-29T13:59:54.005Z,95633.81
2023-05-29T14:02:20.767Z,95626.81
2023-05-29T14:04:47.370Z,95637.47
2023-05-29T14:07:14.087Z,95629.81
2023-05-29T14:09:41.041Z,95628.22
2023-05-29T14:12:08.145Z,95626.91
2023-05-29T14:14:36.024Z,95626.91
2023-05-29T14:17:02.706Z,95623.16
2023-05-29T14:19:29.496Z,95620.28
2023-05-29T14:21:56.445Z,95626.00
2023-05-29T14:24:23.351Z,95626.44
2023-05-29T14:26:50.472Z,95627.41
2023-05-29T14:29:17.269Z,95634.47
2023-05-29T14:31:45.204Z,95624.44
2023-05-29T14:34:13.294Z,95633.47
2023-05-29T14:36:41.126Z,95631.09
2023-05-29T14:39:08.334Z,95620.53
2023-05-29T14:41:36.533Z,95631.91
2023-05-29T14:44:04.078Z,95631.63
2023-05-29T14:46:33.440Z,95630.94
2023-05-29T14:49:01.253Z,95611.94
2023-05-29T14:51:28.812Z,95626.56
2023-05-29T14:53:56.055Z,95625.91
2023-05-29T14:56:23.243Z,95620.16
2023-05-29T14:58:50.092Z,95642.91
2023-05-29T15:01:20.913Z,95633.81
2023-05-29T15:03:47.738Z,95631.25
2023-05-29T15:06:14.669Z,95624.97
2023-05-29T15:08:44.684Z,95609.03
2023-05-29T15:11:13.999Z,95611.81
2023-05-29T15:13:41.475Z,95636.28
2023-05-29T15:16:08.813Z,95625.13
2023-05-29T15:18:35.941Z,95617.66
2023-05-29T15:21:03.174Z,95622.94
2023-05-29T15:23:30.013Z,95620.00
2023-05-29T15:25:56.909Z,95624.50
2023-05-29T15:28:23.845Z,95622.13
2023-05-29T15:30:50.570Z,95623.69
2023-05-29T15:33:17.471Z,95616.63
2023-05-29T15:35:44.299Z,95614.13
2023-05-29T15:38:13.756Z,95613.66
2023-05-29T15:40:42.008Z,95606.16
2023-05-29T15:43:09.943Z,95616.03
2023-05-29T15:45:40.013Z,95618.19
2023-05-29T15:48:07.156Z,95614.97
2023-05-29T15:50:34.033Z,95612.25
2023-05-29T15:53:00.741Z,95600.66
2023-05-29T15:55:27.864Z,95605.72
2023-05-29T15:57:54.925Z,95613.38
2023-05-29T16:00:21.949Z,95619.50
2023-05-29T16:02:48.984Z,95612.66
2023-05-29T16:05:15.919Z,95613.63
2023-05-29T16:07:46.811Z,95610.31
2023-05-29T16:10:13.446Z,95602.25
2023-05-29T16:12:40.144Z,95620.63
2023-05-29T16:15:07.645Z,95613.47
2023-05-29T16:17:34.468Z,95607.94
2023-05-29T16:20:01.354Z,95613.47
2023-05-29T16:24:57.690Z,95631.88
2023-05-29T16:27:24.314Z,95627.00
2023-05-29T16:29:51.016Z,95620.72
2023-05-29T16:32:17.707Z,95628.50
2023-05-29T16:34:45.118Z,95623.78
2023-05-29T16:37:11.988Z,95618.94
2023-05-29T16:39:39.766Z,95625.47
2023-05-29T16:42:06.964Z,95625.03
2023-05-29T16:44:34.087Z,95621.13
2023-05-29T16:47:01.350Z,95624.03
2023-05-29T16:49:28.301Z,95610.81
2023-05-29T16:51:55.014Z,95626.72
2023-05-29T16:54:21.755Z,95610.94
2023-05-29T16:56:48.424Z,95625.72
2023-05-29T16:59:15.185Z,95610.38
2023-05-29T17:01:41.983Z,95617.81
2023-05-29T17:04:11.879Z,95616.03
2023-05-29T17:06:38.864Z,95616.72
2023-05-29T17:09:06.091Z,95616.00
2023-05-29T17:11:32.782Z,95618.72
2023-05-29T17:13:59.469Z,95620.22
2023-05-29T17:16:26.322Z,95619.31
2023-05-29T17:18:53.045Z,95626.88
2023-05-29T17:21:19.876Z,95624.72
2023-05-29T17:23:46.726Z,95611.75
2023-05-29T17:26:13.764Z,95618.63
2023-05-29T17:28:43.059Z,95624.84
2023-05-29T17:31:10.149Z,95624.03
2023-05-29T17:33:36.809Z,95623.03
2023-05-29T17:36:03.571Z,95620.09
2023-05-29T17:38:30.485Z,95628.13
2023-05-29T17:40:57.303Z,95619.97
2023-05-29T17:43:24.248Z,95619.88
2023-05-29T17:45:53.588Z,95623.69
2023-05-29T17:48:21.227Z,95636.56
2023-05-29T17:50:47.925Z,95620.66
2023-05-29T17:53:14.999Z,95632.84
2023-05-29T17:55:41.737Z,95626.75
2023-05-29T17:58:08.995Z,95639.69
2023-05-29T18:00:37.724Z,95639.38
2023-05-29T18:03:06.004Z,95643.19
2023-05-29T18:05:34.074Z,95646.13
2023-05-29T18:08:01.098Z,95658.84
2023-05-29T18:10:28.059Z,95657.59
2023-05-29T18:12:54.776Z,95641.66
2023-05-29T18:15:23.834Z,95663.53
2023-05-29T18:17:50.599Z,95647.44
2023-05-29T18:20:17.957Z,95632.28
2023-05-29T18:22:44.701Z,95640.28
2023-05-29T18:25:12.518Z,95654.13
2023-05-29T18:27:39.351Z,95650.84
2023-05-29T18:30:06.809Z,95644.41
2023-05-29T18:32:37.619Z,95656.00
2023-05-29T18:35:04.889Z,95655.97
2023-05-29T18:37:31.732Z,95663.00
2023-05-29T18:39:58.383Z,95654.06
2023-05-29T18:42:25.514Z,95645.13
2023-05-29T18:44:52.568Z,95656.06
2023-05-29T18:47:19.247Z,95652.44
2023-05-29T18:49:46.150Z,95660.72
2023-05-29T18:52:12.963Z,95651.78
2023-05-29T18:54:39.599Z,95644.28
2023-05-29T18:57:08.853Z,95650.66
2023-05-29T18:59:35.668Z,95654.53
2023-05-29T19:02:02.465Z,95651.78
2023-05-29T19:04:31.789Z,95659.13
2023-05-29T19:06:58.831Z,95656.50
2023-05-29T19:09:25.930Z,95668.88
2023-05-29T19:11:52.638Z,95662.41
2023-05-29T19:14:19.433Z,95673.06
2023-05-29T19:16:46.308Z,95675.25
2023-05-29T19:19:12.975Z,95673.22
2023-05-29T19:21:40.856Z,95658.50
2023-05-29T19:24:07.650Z,95668.97
2023-05-29T19:26:35.773Z,95679.13
2023-05-29T19:29:02.827Z,95677.22
2023-05-29T19:31:29.883Z,95675.16
2023-05-29T19:33:57.186Z,95683.03
2023-05-29T19:36:25.312Z,95685.72
2023-05-29T19:38:52.754Z,95687.31
2023-05-29T19:41:20.508Z,95694.88
2023-05-29T19:43:47.375Z,95687.69
2023-05-29T19:46:14.152Z,95694.06
2023-05-29T19:48:41.099Z,95692.22
2023-05-29T19:51:08.400Z,95699.84
2023-05-29T19:53:35.606Z,95697.59
2023-05-29T19:56:02.367Z,95704.28
2023-05-29T19:58:29.105Z,95701.31
2023-05-29T20:00:57.342Z,95709.81
2023-05-29T20:03:24.419Z,95713.16
2023-05-29T20:05:51.275Z,95719.91
2023-05-29T20:08:18.250Z,95719.09
2023-05-29T20:10:47.911Z,95717.00
2023-05-29T20:13:18.955Z,95720.13
2023-05-29T20:15:45.655Z,95713.28
2023-05-29T20:18:12.429Z,95728.84
2023-05-29T20:20:39.189Z,95724.09
2023-05-29T20:23:05.869Z,95721.97
2023-05-29T20:25:32.588Z,95723.41
2023-05-29T20:27:59.343Z,95726.13
2023-05-29T20:30:26.156Z,95719.16
2023-05-29T20:32:52.800Z,95723.53
2023-05-29T20:35:22.330Z,95731.16
2023-05-29T20:37:52.904Z,95724.53
2023-05-29T20:40:21.158Z,95728.63
2023-05-29T20:42:48.256Z,95724.34
2023-05-29T20:45:16.026Z,95735.38
2023-05-29T20:47:45.494Z,95726.59
2023-05-29T20:50:12.667Z,95729.38
2023-05-29T20:52:39.595Z,95729.97
2023-05-29T20:55:06.841Z,95729.31
2023-05-29T20:57:33.662Z,95733.28
2023-05-29T21:00:00.571Z,95730.31
2023-05-29T21:02:27.354Z,95735.47
2023-05-29T21:04:54.117Z,95720.66
2023-05-29T21:07:20.785Z,95726.44
2023-05-29T21:09:47.533Z,95724.75
2023-05-29T21:12:14.221Z,95726.47
2023-05-29T21:14:41.331Z,95731.34
2023-05-29T21:17:08.231Z,95731.31
2023-05-29T21:19:34.943Z,95732.22
2023-05-29T21:22:02.292Z,95726.47
2023-05-29T21:24:29.199Z,95729.16
2023-05-29T21:26:56.171Z,95720.59
2023-05-29T21:29:22.856Z,95733.00
2023-05-29T21:31:50.227Z,95735.69
2023-05-29T21:34:20.032Z,95730.25
2023-05-29T21:36:48.467Z,95718.91
2023-05-29T21:39:16.378Z,95722.38
2023-05-29T21:41:44.512Z,95733.88
2023-05-29T21:44:11.151Z,95730.75
2023-05-29T21:46:38.200Z,95731.59
2023-05-29T21:49:04.886Z,95735.56
2023-05-29T21:51:34.232Z,95734.69
2023-05-29T21:54:00.985Z,95730.81
2023-05-29T21:56:30.829Z,95728.41
2023-05-29T21:58:57.610Z,95730.34
2023-05-29T22:01:24.355Z,95729.13
2023-05-29T22:03:53.625Z,95745.41
2023-05-29T22:06:20.271Z,95740.69
2023-05-29T22:08:48.418Z,95736.72
2023-05-29T22:11:15.162Z,95733.03
2023-05-29T22:13:42.078Z,95732.47
2023-05-29T22:16:09.076Z,95737.22
2023-05-29T22:18:38.105Z,95733.25
2023-05-29T22:21:06.642Z,95718.69
2023-05-29T22:23:33.309Z,95713.72
2023-05-29T22:26:02.965Z,95723.19
2023-05-29T22:28:30.255Z,95719.53
2023-05-29T22:30:58.270Z,95722.06
2023-05-29T22:33:25.280Z,95712.19
2023-05-29T22:35:51.932Z,95720.88
2023-05-29T22:38:19.524Z,95711.03
2023-05-29T22:40:46.420Z,95710.38
2023-05-29T22:43:13.605Z,95718.34
2023-05-29T22:45:40.321Z,95711.13
2023-05-29T22:48:07.092Z,95711.25
2023-05-29T22:50:34.621Z,95713.34
2023-05-29T22:53:01.876Z,95706.84
2023-05-29T22:55:28.880Z,95712.19
2023-05-29T22:57:56.768Z,95715.34
2023-05-29T23:00:25.209Z,95703.66
2023-05-29T23:02:52.002Z,95712.31
2023-05-29T23:05:19.583Z,95711.16
2023-05-29T23:07:46.400Z,95698.44
2023-05-29T23:10:13.832Z,95703.59
2023-05-29T23:12:40.611Z,95699.97
2023-05-29T23:15:08.149Z,95700.41
2023-05-29T23:17:34.885Z,95694.13
2023-05-29T23:20:01.983Z,95705.75
2023-05-29T23:22:28.839Z,95708.81
2023-05-29T23:24:55.497Z,95701.41
2023-05-29T23:27:22.173Z,95704.88
2023-05-29T23:29:49.133Z,95708.63
2023-05-29T23:32:16.589Z,95700.13
2023-05-29T23:34:43.806Z,95699.72
2023-05-29T23:37:10.716Z,95701.97
2023-05-29T23:39:37.478Z,95706.56
2023-05-29T23:42:04.663Z,95708.78
2023-05-29T23:44:32.648Z,95710.53
2023-05-29T23:46:59.273Z,95707.34
2023-05-29T23:49:28.986Z,95711.16
2023-05-29T23:51:59.190Z,95715.38
2023-05-29T23:54:25.958Z,95708.78
2023-05-29T23:56:52.791Z,95709.13
2023-05-29T23:59:19.638Z,95718.22
